Time;durP1;ratioP1;P1;durP2;ratioP2;P2;SDS_P1;SDS_P2;PMS_P1;PMS_P2;Temp;Humidity;BMP_temperature;BMP_pressure;BME280_temperature;BME280_humidity;BME280_pressure;Samples;Min_cycle;Max_cycle;Signal;HPM_P1;HPM_P2
2021/10/17 00:01:00;;;;;;;19.85;11.48;;;12.30;81.70;;;;;;5034312;28;20025;-78
2021/10/17 00:03:25;;;;;;;21.00;12.52;;;12.30;81.40;;;;;;5034636;28;20103;-78
2021/10/17 00:05:51;;;;;;;21.38;12.60;;;12.30;81.30;;;;;;5029646;28;20068;-78
2021/10/17 00:08:16;;;;;;;20.90;12.07;;;12.30;81.30;;;;;;5021113;28;20075;-78
2021/10/17 00:10:42;;;;;;;20.48;11.82;;;12.30;81.20;;;;;;5037021;28;20021;-77
2021/10/17 00:13:09;;;;;;;23.15;12.70;;;12.30;81.20;;;;;;5038103;28;20407;-78
2021/10/17 00:15:40;;;;;;;19.95;11.25;;;12.30;81.10;;;;;;5038267;28;20017;-78
2021/10/17 00:18:07;;;;;;;15.55;10.88;;;12.30;80.90;;;;;;5037579;28;20029;-77
2021/10/17 00:20:34;;;;;;;20.65;13.55;;;12.30;81.00;;;;;;5037988;28;20021;-77
2021/10/17 00:22:59;;;;;;;17.75;10.98;;;12.30;81.00;;;;;;5037618;28;20033;-78
2021/10/17 00:25:25;;;;;;;20.17;11.73;;;12.20;81.30;;;;;;5051731;28;20025;-78
2021/10/17 00:27:52;;;;;;;17.63;10.60;;;12.20;81.10;;;;;;5038699;28;20527;-78
2021/10/17 00:30:17;;;;;;;18.15;11.40;;;12.30;80.90;;;;;;5018069;28;20072;-78
2021/10/17 00:32:44;;;;;;;19.33;11.30;;;12.20;81.30;;;;;;5017998;28;20104;-78
2021/10/17 00:35:11;;;;;;;20.45;11.35;;;12.20;81.10;;;;;;5026810;28;20026;-77
2021/10/17 00:37:37;;;;;;;21.58;12.68;;;12.30;81.00;;;;;;5036499;28;20052;-78
2021/10/17 00:40:07;;;;;;;18.25;10.93;;;12.20;81.00;;;;;;5037326;28;20022;-78
2021/10/17 00:42:34;;;;;;;18.10;10.63;;;12.30;80.90;;;;;;5037607;28;20542;-78
2021/10/17 00:45:03;;;;;;;19.95;10.82;;;12.20;81.20;;;;;;5037551;28;20287;-78
2021/10/17 00:47:29;;;;;;;15.98;10.45;;;12.20;81.10;;;;;;5035973;28;20030;-78
2021/10/17 00:49:54;;;;;;;17.98;11.25;;;12.20;81.30;;;;;;5036038;28;20533;-78
2021/10/17 00:52:21;;;;;;;17.48;10.57;;;12.10;81.20;;;;;;5037318;28;20511;-78
2021/10/17 00:54:48;;;;;;;18.98;11.43;;;12.10;81.20;;;;;;5037370;28;20104;-78
2021/10/17 00:57:15;;;;;;;17.52;10.40;;;12.10;81.20;;;;;;5036870;28;20021;-78
2021/10/17 00:59:43;;;;;;;17.25;10.57;;;12.10;81.20;;;;;;5036106;28;20502;-78
2021/10/17 01:02:09;;;;;;;18.10;10.10;;;12.00;81.30;;;;;;5036640;28;20057;-78
2021/10/17 01:04:37;;;;;;;19.17;10.88;;;12.00;81.30;;;;;;5037126;28;20559;-78
2021/10/17 01:07:07;;;;;;;19.23;10.50;;;12.10;81.10;;;;;;5036541;28;20443;-78
2021/10/17 01:09:37;;;;;;;18.50;10.80;;;12.00;81.20;;;;;;5037154;28;20014;-78
2021/10/17 01:12:17;;;;;;;;;;;;;;;;;;;;;
2021/10/17 01:14:43;;;;;;;17.63;10.93;;;12.00;81.50;;;;;;5017453;28;20026;-78
2021/10/17 01:17:09;;;;;;;20.88;10.30;;;11.90;81.50;;;;;;5016334;28;20116;-78
2021/10/17 01:19:34;;;;;;;18.90;10.82;;;11.90;81.60;;;;;;5037013;28;20037;-78
2021/10/17 01:22:02;;;;;;;14.52;10.30;;;11.90;81.50;;;;;;5036800;28;20068;-78
2021/10/17 01:24:28;;;;;;;17.02;9.07;;;11.90;81.60;;;;;;5036295;28;20446;-78
2021/10/17 01:26:54;;;;;;;16.17;9.45;;;11.90;81.80;;;;;;5016759;28;20026;-78
2021/10/17 01:29:41;;;;;;;16.60;10.43;;;11.80;81.80;;;;;;5016943;28;20061;-77
2021/10/17 01:32:07;;;;;;;14.75;9.52;;;11.80;81.90;;;;;;5020808;28;20036;-78
2021/10/17 01:34:33;;;;;;;17.98;11.10;;;11.90;82.00;;;;;;5036657;28;20021;-78
2021/10/17 01:36:58;;;;;;;16.77;8.77;;;11.80;82.10;;;;;;5035406;28;20029;-78
2021/10/17 01:39:24;;;;;;;16.08;10.35;;;11.80;82.00;;;;;;5036645;28;20690;-78
2021/10/17 01:41:50;;;;;;;18.33;10.20;;;11.90;82.00;;;;;;5023315;28;20132;-78
2021/10/17 01:44:24;;;;;;;18.60;10.30;;;11.80;82.10;;;;;;5016576;28;20038;-78
2021/10/17 01:46:53;;;;;;;16.23;9.68;;;11.80;82.30;;;;;;5026866;28;20037;-78
2021/10/17 01:49:19;;;;;;;13.85;8.80;;;11.80;82.30;;;;;;5036382;28;20396;-78
2021/10/17 01:51:45;;;;;;;14.48;8.57;;;11.80;82.30;;;;;;5033838;28;20104;-78
2021/10/17 01:54:11;;;;;;;14.85;9.00;;;11.80;82.10;;;;;;5016424;28;20025;-78
2021/10/17 01:56:37;;;;;;;12.85;6.57;;;11.80;82.20;;;;;;5016540;28;20025;-78
2021/10/17 01:59:03;;;;;;;15.73;9.38;;;11.80;82.20;;;;;;5016403;28;20107;-78
2021/10/17 02:01:29;;;;;;;13.50;8.88;;;11.80;82.20;;;;;;5022142;28;20034;-77
2021/10/17 02:04:04;;;;;;;12.50;7.75;;;11.80;82.40;;;;;;5034729;28;20037;-77
2021/10/17 02:06:30;;;;;;;14.52;8.63;;;11.70;82.30;;;;;;5033212;28;20097;-78
2021/10/17 02:09:18;;;;;;;13.30;7.88;;;11.70;82.50;;;;;;5016298;28;20026;-78
2021/10/17 02:11:44;;;;;;;15.50;8.50;;;11.70;82.40;;;;;;5016307;28;20036;-78
2021/10/17 02:14:10;;;;;;;18.13;8.70;;;11.70;82.40;;;;;;5028886;28;20096;-78
2021/10/17 02:16:36;;;;;;;14.10;9.23;;;11.70;82.40;;;;;;5035862;28;20067;-78
2021/10/17 02:19:02;;;;;;;15.48;7.90;;;11.60;82.40;;;;;;5035798;28;20061;-78
2021/10/17 02:21:28;;;;;;;12.63;8.02;;;11.70;82.30;;;;;;5035457;28;20569;-78
2021/10/17 02:23:54;;;;;;;12.90;9.40;;;11.70;82.10;;;;;;5036816;28;20038;-78
2021/10/17 02:26:19;;;;;;;16.95;9.80;;;11.70;82.20;;;;;;5019297;28;20488;-78
2021/10/17 02:28:45;;;;;;;14.20;9.02;;;11.60;82.30;;;;;;5021016;28;20448;-78
2021/10/17 02:31:11;;;;;;;15.80;8.23;;;11.70;82.20;;;;;;5035433;28;20436;-77
2021/10/17 02:33:39;;;;;;;15.05;9.48;;;11.70;82.20;;;;;;5034072;28;20040;-78
2021/10/17 02:36:04;;;;;;;16.38;9.13;;;11.60;82.10;;;;;;5034939;28;20529;-78
2021/10/17 02:38:30;;;;;;;13.80;9.35;;;11.60;82.30;;;;;;5035580;28;20029;-78
2021/10/17 02:40:56;;;;;;;14.43;8.52;;;11.60;82.40;;;;;;5035156;28;20025;-78
2021/10/17 02:43:27;;;;;;;20.10;9.93;;;11.50;82.10;;;;;;5035492;28;20038;-78
2021/10/17 02:45:53;;;;;;;14.00;9.25;;;11.50;82.20;;;;;;5035135;28;20052;-78
2021/10/17 02:48:20;;;;;;;15.13;8.82;;;11.60;82.20;;;;;;5034878;28;20416;-78
2021/10/17 02:50:45;;;;;;;12.70;8.52;;;11.60;82.10;;;;;;5034948;28;20406;-78
2021/10/17 02:53:11;;;;;;;17.83;8.55;;;11.50;82.00;;;;;;5035492;28;20026;-77
2021/10/17 02:55:37;;;;;;;17.70;9.63;;;11.50;82.10;;;;;;5035236;28;20506;-78
2021/10/17 02:58:03;;;;;;;16.95;8.68;;;11.50;82.10;;;;;;5034900;28;20021;-78
2021/10/17 03:00:28;;;;;;;15.15;8.13;;;11.50;82.10;;;;;;5035308;28;20045;-78
2021/10/17 03:02:54;;;;;;;13.27;7.90;;;11.50;82.00;;;;;;5034844;28;20036;-78
2021/10/17 03:05:20;;;;;;;18.73;9.68;;;11.50;81.90;;;;;;5033847;28;20369;-78
2021/10/17 03:07:45;;;;;;;14.50;9.02;;;11.50;82.10;;;;;;5035153;28;20040;-78
2021/10/17 03:10:11;;;;;;;13.07;8.65;;;11.50;82.30;;;;;;5035223;28;20022;-78
2021/10/17 03:12:37;;;;;;;15.13;9.38;;;11.40;82.40;;;;;;5034975;28;20057;-78
2021/10/17 03:15:06;;;;;;;11.40;7.93;;;11.40;82.40;;;;;;5034935;28;20646;-78
2021/10/17 03:17:54;;;;;;;13.27;9.73;;;11.40;82.40;;;;;;5034967;28;20033;-77
2021/10/17 03:20:23;;;;;;;17.27;9.35;;;11.30;82.50;;;;;;5035121;28;20060;-77
2021/10/17 03:22:48;;;;;;;15.55;8.40;;;11.30;82.30;;;;;;5023935;28;20083;-78
2021/10/17 03:25:14;;;;;;;17.23;8.95;;;11.30;82.50;;;;;;5045735;28;20028;-78
2021/10/17 03:27:40;;;;;;;15.40;8.57;;;11.30;82.60;;;;;;5054862;28;20039;-78
2021/10/17 03:30:06;;;;;;;14.80;8.50;;;11.30;82.50;;;;;;5036240;28;20026;-78
2021/10/17 03:32:32;;;;;;;15.20;9.13;;;11.20;82.60;;;;;;5033563;28;20022;-78
2021/10/17 03:35:03;;;;;;;18.92;9.48;;;11.30;82.70;;;;;;5034686;28;20415;-78
2021/10/17 03:37:31;;;;;;;14.90;8.90;;;11.30;82.60;;;;;;5034941;28;20034;-78
2021/10/17 03:39:58;;;;;;;12.52;8.38;;;11.20;82.80;;;;;;5035101;28;20022;-78
2021/10/17 03:42:24;;;;;;;15.63;8.18;;;11.20;82.60;;;;;;5024014;28;20025;-77
2021/10/17 03:44:50;;;;;;;13.80;8.50;;;11.30;82.40;;;;;;5016182;28;20041;-78
2021/10/17 03:47:15;;;;;;;15.40;8.80;;;11.20;82.60;;;;;;5036575;28;20128;-78
2021/10/17 03:49:41;;;;;;;13.88;8.98;;;11.20;82.40;;;;;;5037282;28;20021;-78
2021/10/17 03:52:07;;;;;;;15.68;8.23;;;11.20;82.60;;;;;;5037157;28;20026;-78
2021/10/17 03:54:32;;;;;;;15.13;9.65;;;11.20;82.60;;;;;;5033325;28;20025;-78
2021/10/17 03:56:58;;;;;;;12.10;7.07;;;11.20;82.60;;;;;;5018801;28;20400;-77
2021/10/17 03:59:24;;;;;;;14.68;7.93;;;11.20;82.30;;;;;;5018724;28;20109;-78
2021/10/17 04:01:49;;;;;;;14.95;8.77;;;11.20;82.40;;;;;;5036922;28;20032;-78
2021/10/17 04:04:15;;;;;;;14.70;8.95;;;11.20;82.30;;;;;;5038388;28;20022;-78
2021/10/17 04:06:41;;;;;;;11.80;8.32;;;11.20;82.20;;;;;;5037775;28;20384;-78
2021/10/17 04:09:09;;;;;;;15.32;8.82;;;11.20;82.20;;;;;;5038237;28;20060;-78
2021/10/17 04:11:35;;;;;;;13.98;8.38;;;11.20;82.00;;;;;;5020308;28;20029;-78
2021/10/17 04:14:00;;;;;;;13.45;8.32;;;11.20;81.90;;;;;;5025887;28;20520;-78
2021/10/17 04:16:26;;;;;;;12.52;8.27;;;11.20;81.70;;;;;;5037999;28;20104;-78
2021/10/17 04:18:52;;;;;;;14.20;8.38;;;11.20;81.90;;;;;;5033322;28;20500;-78
2021/10/17 04:21:18;;;;;;;13.85;8.55;;;11.20;81.80;;;;;;5042409;28;20064;-78
2021/10/17 04:23:43;;;;;;;13.88;8.27;;;11.20;81.90;;;;;;5038057;28;20025;-78
2021/10/17 04:26:16;;;;;;;12.77;8.25;;;11.20;82.00;;;;;;5042599;28;20923;-77
2021/10/17 04:28:42;;;;;;;10.90;6.25;;;11.00;82.20;;;;;;5037988;28;20494;-78
2021/10/17 04:31:08;;;;;;;13.35;8.10;;;11.00;82.20;;;;;;5037216;28;20029;-77
2021/10/17 04:33:33;;;;;;;10.52;5.70;;;11.00;82.30;;;;;;5037424;28;20021;-78
2021/10/17 04:35:59;;;;;;;11.48;7.50;;;11.00;82.20;;;;;;5037285;28;20109;-78
2021/10/17 04:38:25;;;;;;;12.95;7.80;;;11.00;82.40;;;;;;5036408;28;20028;-78
2021/10/17 04:40:50;;;;;;;13.65;7.68;;;11.00;82.30;;;;;;5037257;28;20030;-78
2021/10/17 04:43:19;;;;;;;14.07;8.90;;;11.00;82.30;;;;;;5037631;28;20510;-77
2021/10/17 04:45:44;;;;;;;12.18;7.75;;;11.00;81.90;;;;;;5036016;28;20053;-78
2021/10/17 04:48:10;;;;;;;12.93;7.65;;;11.00;81.80;;;;;;5037118;28;20083;-78
2021/10/17 04:50:36;;;;;;;10.98;7.70;;;11.00;81.90;;;;;;5037556;28;20381;-78
2021/10/17 04:53:02;;;;;;;12.15;7.30;;;11.00;81.80;;;;;;5037408;28;20075;-77
2021/10/17 04:55:28;;;;;;;15.13;7.78;;;10.90;81.80;;;;;;5036643;28;20100;-77
2021/10/17 04:57:53;;;;;;;13.85;7.95;;;10.90;82.00;;;;;;5037249;28;20575;-78
2021/10/17 05:00:19;;;;;;;16.30;8.40;;;10.90;82.10;;;;;;5036113;28;20052;-77
2021/10/17 05:02:45;;;;;;;11.23;7.28;;;10.80;82.00;;;;;;5032289;28;20038;-78
2021/10/17 05:05:10;;;;;;;14.52;6.60;;;10.90;81.90;;;;;;5032659;28;20030;-77
2021/10/17 05:07:36;;;;;;;7.20;5.10;;;10.80;81.80;;;;;;5017326;28;20041;-77
2021/10/17 05:10:02;;;;;;;9.15;6.50;;;10.80;81.90;;;;;;5017396;28;20543;-78
2021/10/17 05:12:28;;;;;;;9.25;6.32;;;10.80;82.00;;;;;;5033757;28;20034;-78
2021/10/17 05:14:53;;;;;;;9.85;5.93;;;10.80;81.80;;;;;;5036989;28;20073;-78
2021/10/17 05:17:21;;;;;;;13.50;7.35;;;10.80;81.90;;;;;;5036864;28;20507;-77
2021/10/17 05:19:47;;;;;;;9.98;6.70;;;10.70;81.90;;;;;;5036922;28;20018;-78
2021/10/17 05:22:12;;;;;;;11.07;6.72;;;10.70;82.10;;;;;;5036504;28;20033;-78
2021/10/17 05:24:38;;;;;;;9.85;5.95;;;10.70;81.90;;;;;;5038129;28;20081;-78
2021/10/17 05:27:04;;;;;;;12.82;7.03;;;10.70;82.10;;;;;;5035458;28;20064;-78
2021/10/17 05:29:30;;;;;;;10.95;7.00;;;10.70;81.90;;;;;;5034684;28;20032;-78
2021/10/17 05:31:56;;;;;;;12.60;7.15;;;10.70;82.00;;;;;;5028296;28;20025;-78
2021/10/17 05:34:22;;;;;;;13.10;7.35;;;10.60;81.80;;;;;;5028565;28;20036;-78
2021/10/17 05:36:47;;;;;;;10.48;7.22;;;10.70;81.80;;;;;;5024653;28;20052;-78
2021/10/17 05:39:13;;;;;;;10.70;5.95;;;10.70;81.80;;;;;;5025476;28;20466;-78
2021/10/17 05:41:39;;;;;;;10.85;6.50;;;10.60;81.60;;;;;;5025171;28;20033;-78
2021/10/17 05:44:05;;;;;;;11.00;6.72;;;10.60;81.70;;;;;;5026725;28;20361;-78
2021/10/17 05:46:30;;;;;;;10.18;6.38;;;10.70;81.40;;;;;;5025118;28;20045;-77
2021/10/17 05:48:56;;;;;;;7.10;4.90;;;10.60;81.60;;;;;;5027405;28;20096;-78
2021/10/17 05:51:24;;;;;;;10.05;6.65;;;10.50;81.70;;;;;;5023481;28;20159;-78
2021/10/17 05:53:50;;;;;;;11.20;6.90;;;10.60;81.70;;;;;;5024855;28;20042;-78
2021/10/17 05:56:16;;;;;;;12.05;6.10;;;10.50;81.60;;;;;;5027634;28;20029;-78
2021/10/17 05:58:42;;;;;;;12.77;5.97;;;10.50;81.80;;;;;;5026617;28;20025;-78
2021/10/17 06:01:07;;;;;;;13.30;7.10;;;10.50;81.50;;;;;;5024085;28;20033;-78
2021/10/17 06:03:33;;;;;;;10.32;6.85;;;10.50;81.50;;;;;;5019729;28;20029;-78
2021/10/17 06:06:02;;;;;;;7.47;5.03;;;10.50;81.50;;;;;;5015017;28;20049;-79
2021/10/17 06:08:31;;;;;;;9.70;6.53;;;10.50;81.70;;;;;;5022644;28;20029;-78
2021/10/17 06:10:56;;;;;;;11.05;6.03;;;10.50;81.80;;;;;;5025359;28;20018;-79
2021/10/17 06:13:22;;;;;;;8.27;6.15;;;10.50;81.50;;;;;;5026125;28;20037;-81
2021/10/17 06:15:48;;;;;;;10.02;6.85;;;10.50;81.30;;;;;;5024498;28;20038;-82
2021/10/17 06:18:14;;;;;;;10.45;6.78;;;10.50;81.40;;;;;;5027487;28;20061;-81
2021/10/17 06:20:39;;;;;;;11.88;7.57;;;10.50;81.20;;;;;;5025605;28;20116;-79
2021/10/17 06:23:05;;;;;;;9.25;5.93;;;10.50;81.10;;;;;;5025583;28;20018;-80
2021/10/17 06:25:31;;;;;;;13.52;6.68;;;10.50;81.10;;;;;;5027972;28;20168;-81
2021/10/17 06:27:57;;;;;;;7.63;5.35;;;10.50;81.20;;;;;;5024806;28;20103;-81
2021/10/17 06:30:22;;;;;;;8.38;5.60;;;10.40;81.20;;;;;;5026483;28;20033;-82
2021/10/17 06:32:48;;;;;;;12.07;6.28;;;10.40;81.30;;;;;;5025718;28;20017;-83
2021/10/17 06:35:14;;;;;;;14.32;6.35;;;10.40;81.30;;;;;;5024567;28;20026;-84
2021/10/17 06:37:41;;;;;;;6.50;4.75;;;10.50;81.10;;;;;;5025630;28;20088;-86
2021/10/17 06:40:07;;;;;;;10.77;6.60;;;10.40;81.30;;;;;;5021958;28;20084;-83
2021/10/17 06:42:33;;;;;;;8.90;5.07;;;10.40;81.30;;;;;;5026755;28;20147;-81
2021/10/17 06:44:59;;;;;;;9.63;6.32;;;10.40;81.20;;;;;;5027343;28;20037;-80
